Latest Weather Observations for Goulburn Airport

IDN60801

Issued at 3:22 pm EST Monday 23 September 2019 (issued every 10 minutes, with the page automatically refreshed every 10 minutes)

About weather observations | Map of weather stations | Latest weather observations for NSW | Other Formats
Station Details ID: 070330 Name: GOULBURN AIRPORT AWS Lat: -34.81 Lon: 149.73 Height: 640.0 m
Data from the previous 72 hours. | See also: Recent months at Goulburn Airport
Date/Time
EST
Temp
°C
App
Temp
°C
Dew
Point
°C
Rel
Hum
%
Delta-T
°C
Wind Press
QNH
hPa
Press
MSL
hPa
Rain since
9am
mm
Dir  Spd
km/h
Gust
km/h
Spd
kts
Gust
kts
23/03:03pm 11.7 0.8 -1.1 41 5.3 W 46 65 25 35 1021.9 1021.9 0.0
23/03:00pm 11.9 1.5 -0.3 43 5.1 W 44 61 24 33 1021.9 1021.9 0.0
23/02:30pm 12.4 3.2 1.1 46 5.0 W 39 61 21 33 1022.5 1022.6 0.0
23/02:24pm 12.8 2.7 0.2 42 5.4 W 43 61 23 33 1022.4 1022.5 0.0
23/02:00pm 11.5 2.3 1.5 50 4.4 W 39 52 21 28 1022.6 1022.7 0.0
23/01:44pm 11.6 2.4 1.5 50 4.4 WNW 39 57 21 31 1022.6 1022.7 0.0
23/01:30pm 11.5 1.6 2.5 54 4.0 W 44 56 24 30 1022.6 1022.7 0.0
23/01:00pm 11.1 0.4 2.4 55 3.9 W 48 65 26 35 1022.6 1022.7 0.0
23/12:56pm 11.8 1.2 3.3 56 3.9 W 48 67 26 36 1022.5 1022.6 0.0
23/12:50pm 11.3 0.9 1.8 52 4.2 W 46 67 25 36 1022.4 1022.5 0.0
23/12:39pm 11.9 4.9 4.2 59 3.6 W 30 48 16 26 1022.3 1022.4 0.0
23/12:30pm 10.7 3.7 4.2 64 3.0 WSW 30 41 16 22 1022.5 1022.6 0.0
23/12:12pm 11.9 3.2 2.1 51 4.4 W 37 57 20 31 1022.4 1022.5 0.0
23/12:00pm 10.2 1.2 2.3 58 3.5 W 39 56 21 30 1022.2 1022.3 0.0
23/11:51am 11.7 3.2 0.8 47 4.7 W 35 56 19 30 1022.1 1022.1 0.0
23/11:30am 11.5 3.4 0.9 48 4.6 W 33 44 18 24 1022.2 1022.3 0.0
23/11:00am 13.1 2.0 0.2 41 5.6 WNW 48 59 26 32 1022.3 1022.4 0.0
23/10:44am 13.7 5.8 1.0 42 5.6 WNW 32 52 17 28 1022.3 1022.4 0.0
23/10:30am 12.9 4.8 1.3 45 5.1 WNW 33 44 18 24 1022.4 1022.5 0.0
23/10:00am 12.1 3.6 0.8 46 4.9 WNW 35 44 19 24 1022.8 1022.9 0.0
23/09:30am 12.0 3.5 1.1 47 4.8 WNW 35 44 19 24 1023.3 1023.3 0.0
23/09:00am 11.5 3.3 0.6 47 4.7 W 33 44 18 24 1023.1 1023.2 0.0
23/08:30am 11.3 4.6 1.3 50 4.4 W 26 41 14 22 1022.9 1023.0 0.0
23/08:00am 9.0 5.9 3.8 70 2.3 NNW 9 17 5 9 1023.0 1023.1 0.0
23/07:30am 6.4 4.4 2.3 75 1.7 NW 2 6 1 3 1023.1 1023.2 0.0
23/07:00am 3.4 0.7 2.7 95 0.3 WNW 6 7 3 4 1022.9 1023.0 0.0
23/06:30am 0.7 -1.2 0.3 97 0.2 CALM 0 6 0 3 1022.8 1022.9 0.0
23/06:00am -0.7 -3.3 -1.4 95 0.2 WNW 2 9 1 5 1022.4 1022.5 0.0
23/05:30am 0.0 -2.1 -0.7 95 0.3 CALM 0 0 0 0 1022.3 1022.4 0.0
23/05:00am 0.2 -3.0 -0.4 96 0.2 WNW 6 7 3 4 1022.1 1022.1 0.0
23/04:30am 0.5 -1.6 -0.5 93 0.4 CALM 0 0 0 0 1022.0 1022.0 0.0
23/04:00am 1.2 -0.8 -0.1 91 0.5 CALM 0 0 0 0 1022.0 1022.0 0.0
23/03:30am 1.7 -0.2 0.7 93 0.4 CALM 0 0 0 0 1022.2 1022.3 0.0
23/03:00am 2.0 0.2 1.0 93 0.4 CALM 0 0 0 0 1022.5 1022.6 0.0
23/02:30am 2.4 0.6 1.1 91 0.5 CALM 0 0 0 0 1022.8 1022.9 0.0
23/02:00am 2.0 0.1 0.4 89 0.6 CALM 0 0 0 0 1023.1 1023.2 0.0
23/01:30am 3.0 1.2 1.2 88 0.7 CALM 0 0 0 0 1023.5 1023.5 0.0
23/01:00am 2.6 0.8 1.0 89 0.6 CALM 0 0 0 0 1023.5 1023.5 0.0
23/12:30am 2.5 0.7 1.2 91 0.5 CALM 0 0 0 0 1023.7 1023.8 0.0
23/12:00am 3.6 2.0 2.3 91 0.5 CALM 0 0 0 0 1023.8 1023.9 0.0
 
Date/Time
EST
Temp
°C
App
Temp
°C
Dew
Point
°C
Rel
Hum
%
Delta-T
°C
Wind Press
QNH
hPa
Press
MSL
hPa
Rain since
9am
mm
Dir  Spd
km/h
Gust
km/h
Spd
kts
Gust
kts
22/11:30pm 3.7 2.0 1.7 87 0.8 CALM 0 4 0 2 1023.7 1023.8 0.0
22/11:00pm 4.7 3.0 2.1 83 1.1 CALM 0 0 0 0 1023.6 1023.7 0.0
22/10:30pm 5.1 3.5 2.5 83 1.1 CALM 0 0 0 0 1023.7 1023.8 0.0
22/10:00pm 5.3 2.0 2.3 81 1.3 WNW 9 11 5 6 1023.7 1023.8 0.0
22/09:30pm 5.8 2.1 2.4 79 1.4 WNW 11 13 6 7 1023.7 1023.8 0.0
22/09:00pm 6.6 2.6 2.7 76 1.7 WNW 13 13 7 7 1023.8 1023.9 0.0
22/08:30pm 6.6 2.6 2.9 77 1.6 WNW 13 13 7 7 1023.7 1023.8 0.0
22/08:00pm 7.2 3.6 2.9 74 1.9 W 11 13 6 7 1023.8 1023.9 0.0
22/07:30pm 9.0 5.0 2.6 64 2.8 W 13 15 7 8 1023.7 1023.8 0.0
22/07:00pm 10.6 6.6 2.9 59 3.4 W 13 15 7 8 1023.5 1023.5 0.0
22/06:30pm 11.4 7.0 2.9 56 3.8 W 15 19 8 10 1023.0 1023.1 0.0
22/06:00pm 11.9 7.2 3.4 56 3.9 W 17 20 9 11 1022.9 1023.0 0.0
22/05:30pm 12.7 7.6 2.8 51 4.5 W 19 26 10 14 1022.5 1022.6 0.0
22/05:00pm 13.3 7.9 2.5 48 4.9 W 20 30 11 16 1022.4 1022.5 0.0
22/04:30pm 13.9 6.6 2.2 45 5.3 W 30 39 16 21 1022.2 1022.3 0.0
22/04:00pm 14.3 7.3 2.2 44 5.5 W 28 37 15 20 1022.1 1022.1 0.0
22/03:30pm 14.9 8.1 3.1 45 5.5 W 28 37 15 20 1021.8 1021.8 0.0
22/03:00pm 15.8 9.6 4.2 46 5.6 WNW 26 35 14 19 1021.6 1021.6 0.0
22/02:30pm 16.1 9.4 3.5 43 6.0 W 28 35 15 19 1021.4 1021.5 0.0
22/02:00pm 17.2 11.3 3.8 41 6.5 WNW 24 37 13 20 1021.6 1021.6 0.0
22/01:30pm 15.8 9.2 2.2 40 6.3 WNW 26 41 14 22 1021.9 1021.9 0.0
22/01:00pm 15.8 8.8 2.2 40 6.3 WNW 28 39 15 21 1022.2 1022.3 0.0
22/12:30pm 15.2 8.5 1.7 40 6.1 WNW 26 35 14 19 1022.5 1022.6 0.0
22/12:00pm 15.6 8.4 3.1 43 5.9 WNW 30 43 16 23 1022.8 1022.9 0.0
22/11:30am 15.1 7.6 3.3 45 5.6 WNW 32 41 17 22 1022.8 1022.9 0.0
22/11:00am 15.1 7.8 2.6 43 5.8 WNW 30 39 16 21 1022.8 1022.9 0.0
22/10:30am 14.2 6.7 1.2 41 5.8 W 30 37 16 20 1023.0 1023.1 0.0
22/10:00am 14.4 8.1 3.5 48 5.1 W 26 35 14 19 1023.1 1023.2 0.0
22/09:30am 13.5 6.8 3.6 51 4.6 W 28 37 15 20 1023.1 1023.2 0.0
22/09:00am 12.9 6.1 3.0 51 4.5 W 28 37 15 20 1023.1 1023.2 1.6
22/08:30am 12.2 6.5 4.7 60 3.6 W 24 32 13 17 1023.0 1023.1 1.6
22/08:00am 11.0 6.1 4.9 66 2.9 WNW 20 26 11 14 1022.7 1022.8 1.6
22/07:30am 10.2 6.1 6.0 75 2.0 WNW 17 22 9 12 1022.4 1022.5 1.6
22/07:00am 9.1 5.3 6.0 81 1.5 WNW 15 20 8 11 1022.0 1022.0 1.6
22/06:30am 8.4 4.2 5.9 84 1.2 NW 17 22 9 12 1021.8 1021.8 1.6
22/06:00am 8.4 5.1 6.4 87 1.0 NW 13 17 7 9 1021.3 1021.4 1.6
22/05:30am 8.6 5.4 6.7 88 0.9 WNW 13 17 7 9 1021.1 1021.2 1.4
22/05:00am 8.9 4.3 6.7 86 1.1 NW 20 32 11 17 1020.8 1020.8 1.2
22/04:30am 9.1 4.5 6.5 84 1.3 W 20 26 11 14 1019.6 1019.7 0.8
22/04:00am 10.1 6.1 8.2 88 1.0 NW 19 26 10 14 1020.1 1020.1 0.8
22/03:30am 9.5 7.3 7.8 89 0.8 WNW 9 13 5 7 1019.2 1019.2 0.8
22/03:00am 9.8 6.5 7.9 88 0.9 NW 15 19 8 10 1019.2 1019.2 0.8
22/02:30am 9.8 6.0 7.7 87 1.0 WNW 17 20 9 11 1019.2 1019.2 0.8
22/02:00am 10.7 7.2 8.6 87 1.1 WNW 17 24 9 13 1019.1 1019.1 0.8
22/01:30am 10.8 7.2 8.4 85 1.2 WNW 17 24 9 13 1019.6 1019.7 0.8
22/01:00am 11.1 7.9 8.3 83 1.4 NW 15 20 8 11 1019.4 1019.4 0.8
22/12:30am 11.2 8.0 8.4 83 1.4 NW 15 19 8 10 1019.5 1019.6 0.8
22/12:00am 11.3 8.5 8.7 84 1.3 NNW 13 15 7 8 1019.6 1019.7 0.8
 
Date/Time
EST
Temp
°C
App
Temp
°C
Dew
Point
°C
Rel
Hum
%
Delta-T
°C
Wind Press
QNH
hPa
Press
MSL
hPa
Rain since
9am
mm
Dir  Spd
km/h
Gust
km/h
Spd
kts
Gust
kts
21/11:30pm 11.9 8.8 8.9 82 1.6 WNW 15 19 8 10 1019.1 1019.1 0.8
21/11:00pm 12.5 9.7 10.0 85 1.3 NW 15 19 8 10 1019.3 1019.3 0.8
21/10:30pm 13.1 10.1 10.5 84 1.4 WNW 17 20 9 11 1019.1 1019.1 0.8
21/10:00pm 13.5 11.2 11.6 88 1.0 WNW 15 20 8 11 1018.7 1018.7 0.8
21/09:30pm 11.2 10.9 8.8 85 1.2 CALM 0 0 0 0 1018.1 1018.1 0.8
21/09:00pm 12.9 13.0 10.1 83 1.5 CALM 0 0 0 0 1018.5 1018.5 0.8
21/08:30pm 13.5 11.4 9.7 78 2.0 W 11 13 6 7 1018.7 1018.7 0.8
21/08:00pm 14.6 12.1 9.8 73 2.6 NW 13 20 7 11 1018.7 1018.7 0.8
21/07:30pm 15.5 13.1 10.1 70 2.9 NNW 13 15 7 8 1018.3 1018.3 0.8
21/07:00pm 16.0 10.8 10.3 69 3.1 N 28 35 15 19 1017.9 1017.9 0.8
21/06:30pm 16.0 10.8 10.3 69 3.1 N 28 35 15 19 1017.4 1017.4 0.8
21/06:00pm 15.9 10.4 10.7 71 2.9 N 30 35 16 19 1017.2 1017.2 0.8
21/05:30pm 16.6 10.2 10.7 68 3.3 N 35 48 19 26 1017.1 1017.1 0.8
21/05:00pm 16.8 11.5 11.3 70 3.1 N 30 41 16 22 1016.9 1016.9 0.8
21/04:30pm 16.4 10.1 10.9 70 3.0 N 35 48 19 26 1016.9 1016.9 0.8
21/04:00pm 15.9 9.3 11.5 75 2.4 N 37 46 20 25 1017.0 1017.0 0.8
21/03:46pm 15.6 9.3 11.2 75 2.4 N 35 56 19 30 1016.7 1016.6 0.8
21/03:30pm 15.3 9.8 11.7 79 2.0 N 32 39 17 21 1017.9 1017.9 0.8
21/03:00pm 14.7 9.1 12.0 84 1.5 N 33 46 18 25 1018.5 1018.5 0.8
21/02:30pm 15.1 9.6 11.7 80 1.9 NNW 32 44 17 24 1019.0 1019.0 0.4
21/02:09pm 15.4 10.0 12.2 81 1.8 NW 32 50 17 27 1019.4 1019.4 0.2
21/02:00pm 15.2 9.6 12.0 81 1.8 NW 33 50 18 27 1019.4 1019.4 0.2
21/01:30pm 17.9 11.4 10.5 62 4.1 NNW 35 50 19 27 1018.8 1018.8 0.0
21/01:00pm 19.5 11.6 9.4 52 5.5 NNW 41 61 22 33 1018.4 1018.4 0.0
21/12:39pm 21.5 13.0 8.7 44 7.0 NNW 43 61 23 33 1018.1 1018.1 0.0
21/12:30pm 21.6 13.9 8.8 44 7.0 NNW 39 52 21 28 1017.9 1017.9 0.0
21/12:00pm 21.0 13.0 8.9 46 6.6 NNW 41 56 22 30 1018.3 1018.3 0.0
21/11:30am 20.6 13.0 8.9 47 6.4 N 39 57 21 31 1018.5 1018.5 0.0
21/11:18am 20.9 13.4 9.5 48 6.3 N 39 57 21 31 1018.3 1018.3 0.0
21/11:00am 20.7 12.2 9.3 48 6.2 N 44 57 24 31 1018.3 1018.3 0.0
21/10:30am 20.5 11.3 9.4 49 6.1 N 48 69 26 37 1018.9 1018.9 0.0
21/10:02am 21.1 12.9 9.7 48 6.3 N 43 63 23 34 1019.4 1019.4 0.0
21/10:00am 21.0 13.2 9.6 48 6.3 N 41 56 22 30 1019.5 1019.6 0.0
21/09:49am 20.3 13.6 9.5 50 5.9 N 35 59 19 32 1019.6 1019.7 0.0
21/09:30am 20.2 13.8 9.5 50 5.9 N 33 46 18 25 1020.4 1020.4 0.0
21/09:23am 20.4 14.6 9.6 50 5.9 N 30 46 16 25 1020.4 1020.4 0.0
21/09:00am 19.0 15.5 10.3 57 4.8 N 19 26 10 14 1020.5 1020.5 0.0
21/08:30am 17.3 15.1 10.7 65 3.6 NNE 13 20 7 11 1020.5 1020.5 0.0
21/08:00am 15.5 14.1 12.3 81 1.8 NNE 11 15 6 8 1020.6 1020.6 0.0
21/07:30am 14.2 12.0 12.1 87 1.2 NE 15 17 8 9 1020.4 1020.4 0.0
21/07:00am 13.5 12.0 11.9 90 0.9 NE 11 17 6 9 1020.5 1020.5 0.0
21/06:30am 13.1 11.5 11.7 91 0.8 NE 11 15 6 8 1020.2 1020.2 0.0
21/06:00am 13.0 11.1 11.7 92 0.7 NE 13 17 7 9 1020.1 1020.1 0.0
21/05:30am 13.2 10.6 11.9 92 0.7 NE 17 22 9 12 1019.5 1019.6 0.0
21/05:00am 13.2 10.6 11.9 92 0.7 NE 17 24 9 13 1019.6 1019.7 0.0
21/04:41am 13.3 10.7 12.0 92 0.7 NE 17 24 9 13 1019.7 1019.8 0.0
21/04:30am 13.4 10.8 12.1 92 0.7 NE 17 24 9 13 1019.7 1019.8 0.0
21/04:03am 13.3 10.7 11.9 91 0.8 NNE 17 26 9 14 1019.9 1019.9 0.0
21/04:00am 13.3 10.3 11.9 91 0.8 NNE 19 26 10 14 1019.9 1019.9 0.0
21/03:30am 13.4 9.8 11.8 90 0.9 NNE 22 32 12 17 1019.9 1019.9 0.0
21/03:00am 13.5 9.2 11.9 90 0.9 NNE 26 39 14 21 1019.9 1019.9 0.0
21/02:30am 13.8 9.8 11.8 88 1.1 NNE 24 41 13 22 1020.2 1020.2 0.0
21/02:00am 13.9 9.9 11.9 88 1.1 NNE 24 33 13 18 1020.5 1020.5 0.0
21/01:30am 13.6 10.4 11.8 89 1.0 NNE 20 32 11 17 1020.9 1021.0 0.0
21/01:00am 13.4 10.1 11.6 89 1.0 NNE 20 30 11 16 1021.4 1021.5 0.0
21/12:30am 13.9 9.1 11.8 87 1.2 NNE 28 35 15 19 1021.9 1021.9 0.0
21/12:00am 13.9 9.6 11.9 88 1.1 NNE 26 37 14 20 1022.2 1022.3 0.0
 
Date/Time
EST
Temp
°C
App
Temp
°C
Dew
Point
°C
Rel
Hum
%
Delta-T
°C
Wind Press
QNH
hPa
Press
MSL
hPa
Rain since
9am
mm
Dir  Spd
km/h
Gust
km/h
Spd
kts
Gust
kts
20/11:30pm 13.8 10.2 12.0 89 1.0 NE 22 32 12 17 1022.4 1022.5 0.0
20/11:19pm 13.8 10.8 12.0 89 1.0 NE 19 28 10 15 1022.5 1022.6 0.0
20/11:00pm 13.7 11.1 12.1 90 0.9 NE 17 22 9 12 1022.6 1022.7 0.0
20/10:30pm 13.8 10.7 12.2 90 0.9 NE 20 28 11 15 1022.7 1022.8 0.0
20/10:12pm 13.8 10.6 12.0 89 1.0 NE 20 28 11 15 1022.7 1022.8 0.0
20/10:00pm 14.0 10.1 12.2 89 1.0 NE 24 30 13 16 1022.8 1022.9 0.0
20/09:30pm 14.3 10.0 12.2 87 1.2 NE 26 35 14 19 1022.7 1022.8 0.0
20/09:00pm 14.5 9.9 12.4 87 1.2 NE 28 37 15 20 1022.8 1022.9 0.0
20/08:30pm 14.4 10.6 12.3 87 1.2 NE 24 35 13 19 1022.9 1023.0 0.0
20/08:00pm 14.5 10.6 12.0 85 1.4 NE 24 35 13 19 1022.5 1022.6 0.0
20/07:30pm 14.9 11.3 12.0 83 1.6 NE 22 32 12 17 1022.4 1022.5 0.0
20/07:00pm 15.3 12.5 11.3 77 2.2 NE 17 24 9 13 1022.3 1022.4 0.0
20/06:30pm 15.9 12.5 11.1 73 2.7 ENE 20 30 11 16 1022.2 1022.3 0.0
20/06:00pm 16.7 13.0 10.3 66 3.5 NE 20 26 11 14 1022.1 1022.1 0.0
20/05:30pm 17.7 13.7 10.6 63 3.9 ENE 22 28 12 15 1021.9 1021.9 0.0
20/05:00pm 18.5 14.5 10.3 59 4.5 NE 22 28 12 15 1021.7 1021.7 0.0
20/04:30pm 19.1 15.3 11.2 60 4.5 NE 22 28 12 15 1021.6 1021.6 0.0
20/04:00pm 19.5 15.6 10.8 57 4.9 NE 22 32 12 17 1021.7 1021.7 0.0
20/03:30pm 19.9 15.6 10.6 55 5.2 NE 24 32 13 17 1021.4 1021.5 0.0

Other formats

Comma delimited format used in spreadsheet applications
http://www.bom.gov.au/fwo/IDN60801/IDN60801.95716.axf

JavaScript Object Notation format (JSON) in row-major order
http://www.bom.gov.au/fwo/IDN60801/IDN60801.95716.json

Data quality

Most of these data are generated automatically and are frequently updated. Quality checks on data are not normally performed. It is possible for incorrect values to appear. Refer to information at About Latest Weather Observations and please check the disclaimer before using these data.